sensor_id;sensor_type;location;lat;lon;timestamp;temperature;humidity
23435;DHT22;11890;45.380;11.028;2022-11-04T00:00:06;17.20;99.90
23435;DHT22;11890;45.380;11.028;2022-11-04T00:02:34;17.20;99.90
23435;DHT22;11890;45.380;11.028;2022-11-04T00:05:01;17.20;99.90
23435;DHT22;11890;45.380;11.028;2022-11-04T00:07:29;17.20;99.90
23435;DHT22;11890;45.380;11.028;2022-11-04T00:10:15;17.20;99.90
23435;DHT22;11890;45.380;11.028;2022-11-04T00:12:42;17.20;99.90
23435;DHT22;11890;45.380;11.028;2022-11-04T00:15:09;17.10;99.90
23435;DHT22;11890;45.380;11.028;2022-11-04T00:17:57;17.10;99.90
23435;DHT22;11890;45.380;11.028;2022-11-04T00:20:24;17.10;99.90
23435;DHT22;11890;45.380;11.028;2022-11-04T00:23:21;17.10;99.90
23435;DHT22;11890;45.380;11.028;2022-11-04T00:26:08;17.10;99.90
23435;DHT22;11890;45.380;11.028;2022-11-04T00:28:54;17.10;99.90
23435;DHT22;11890;45.380;11.028;2022-11-04T00:31:21;17.10;99.90
23435;DHT22;11890;45.380;11.028;2022-11-04T00:34:07;17.10;99.90
23435;DHT22;11890;45.380;11.028;2022-11-04T00:36:35;17.10;99.90
23435;DHT22;11890;45.380;11.028;2022-11-04T00:39:02;17.10;99.90
23435;DHT22;11890;45.380;11.028;2022-11-04T00:41:29;17.10;99.90
23435;DHT22;11890;45.380;11.028;2022-11-04T00:44:01;17.10;99.90
23435;DHT22;11890;45.380;11.028;2022-11-04T00:46:31;17.10;99.90
23435;DHT22;11890;45.380;11.028;2022-11-04T00:48:59;17.10;99.90
23435;DHT22;11890;45.380;11.028;2022-11-04T00:51:26;17.00;99.90
23435;DHT22;11890;45.380;11.028;2022-11-04T00:53:54;17.00;99.90
23435;DHT22;11890;45.380;11.028;2022-11-04T00:56:21;17.00;99.90
23435;DHT22;11890;45.380;11.028;2022-11-04T00:58:49;17.00;99.90
23435;DHT22;11890;45.380;11.028;2022-11-04T01:01:17;16.90;99.90
23435;DHT22;11890;45.380;11.028;2022-11-04T01:03:47;16.90;99.90
23435;DHT22;11890;45.380;11.028;2022-11-04T01:06:15;17.00;99.90
23435;DHT22;11890;45.380;11.028;2022-11-04T01:08:43;17.00;99.90
23435;DHT22;11890;45.380;11.028;2022-11-04T01:11:10;17.00;99.90
23435;DHT22;11890;45.380;11.028;2022-11-04T01:13:38;16.90;99.90
23435;DHT22;11890;45.380;11.028;2022-11-04T01:16:08;17.00;99.90
23435;DHT22;11890;45.380;11.028;2022-11-04T01:18:36;16.90;99.90
23435;DHT22;11890;45.380;11.028;2022-11-04T01:21:06;16.90;99.90
23435;DHT22;11890;45.380;11.028;2022-11-04T01:23:34;17.00;99.90
23435;DHT22;11890;45.380;11.028;2022-11-04T01:26:06;17.00;99.90
23435;DHT22;11890;45.380;11.028;2022-11-04T01:28:34;16.90;99.90
23435;DHT22;11890;45.380;11.028;2022-11-04T01:31:09;16.90;99.90
23435;DHT22;11890;45.380;11.028;2022-11-04T01:33:37;16.90;99.90
23435;DHT22;11890;45.380;11.028;2022-11-04T01:36:06;16.90;99.90
23435;DHT22;11890;45.380;11.028;2022-11-04T01:38:34;16.90;99.90
23435;DHT22;11890;45.380;11.028;2022-11-04T01:41:02;16.90;99.90
23435;DHT22;11890;45.380;11.028;2022-11-04T01:46:30;16.90;99.90
23435;DHT22;11890;45.380;11.028;2022-11-04T01:51:39;16.90;99.90
23435;DHT22;11890;45.380;11.028;2022-11-04T01:54:09;16.90;99.90
23435;DHT22;11890;45.380;11.028;2022-11-04T01:56:38;16.90;99.90
23435;DHT22;11890;45.380;11.028;2022-11-04T01:59:11;16.90;99.90
23435;DHT22;11890;45.380;11.028;2022-11-04T02:01:41;16.90;99.90
23435;DHT22;11890;45.380;11.028;2022-11-04T02:04:09;16.90;99.90
23435;DHT22;11890;45.380;11.028;2022-11-04T02:06:54;16.90;99.90
23435;DHT22;11890;45.380;11.028;2022-11-04T02:09:25;16.90;99.90
23435;DHT22;11890;45.380;11.028;2022-11-04T02:11:53;16.90;99.90
23435;DHT22;11890;45.380;11.028;2022-11-04T02:14:39;16.90;99.90
23435;DHT22;11890;45.380;11.028;2022-11-04T02:17:33;16.90;99.90
23435;DHT22;11890;45.380;11.028;2022-11-04T02:34:39;16.90;99.90
23435;DHT22;11890;45.380;11.028;2022-11-04T02:37:31;16.90;99.90
23435;DHT22;11890;45.380;11.028;2022-11-04T02:40:17;16.90;99.90
23435;DHT22;11890;45.380;11.028;2022-11-04T02:45:43;16.90;99.90
23435;DHT22;11890;45.380;11.028;2022-11-04T02:53:23;16.90;99.90
23435;DHT22;11890;45.380;11.028;2022-11-04T02:55:55;16.90;99.90
23435;DHT22;11890;45.380;11.028;2022-11-04T02:58:31;17.00;99.90
23435;DHT22;11890;45.380;11.028;2022-11-04T03:01:01;16.90;99.90
23435;DHT22;11890;45.380;11.028;2022-11-04T03:03:40;16.90;99.90
23435;DHT22;11890;45.380;11.028;2022-11-04T03:06:13;17.00;99.90
23435;DHT22;11890;45.380;11.028;2022-11-04T03:08:46;17.00;99.90
23435;DHT22;11890;45.380;11.028;2022-11-04T03:11:18;17.00;99.90
23435;DHT22;11890;45.380;11.028;2022-11-04T03:16:31;17.00;99.90
23435;DHT22;11890;45.380;11.028;2022-11-04T03:19:10;17.00;99.90
23435;DHT22;11890;45.380;11.028;2022-11-04T03:21:49;17.00;99.90
23435;DHT22;11890;45.380;11.028;2022-11-04T03:24:18;17.00;99.90
23435;DHT22;11890;45.380;11.028;2022-11-04T03:26:53;17.00;99.90
23435;DHT22;11890;45.380;11.028;2022-11-04T03:32:58;17.00;99.90
23435;DHT22;11890;45.380;11.028;2022-11-04T03:35:30;17.00;99.90
23435;DHT22;11890;45.380;11.028;2022-11-04T03:37:58;17.00;99.90
23435;DHT22;11890;45.380;11.028;2022-11-04T03:40:26;17.00;99.90
23435;DHT22;11890;45.380;11.028;2022-11-04T03:42:54;16.90;99.90
23435;DHT22;11890;45.380;11.028;2022-11-04T03:45:26;16.90;99.90
23435;DHT22;11890;45.380;11.028;2022-11-04T03:47:55;16.90;99.90
23435;DHT22;11890;45.380;11.028;2022-11-04T03:50:31;16.90;99.90
23435;DHT22;11890;45.380;11.028;2022-11-04T03:52:59;16.80;99.90
23435;DHT22;11890;45.380;11.028;2022-11-04T03:58:44;16.70;99.90
23435;DHT22;11890;45.380;11.028;2022-11-04T04:04:37;16.90;99.90
23435;DHT22;11890;45.380;11.028;2022-11-04T04:07:12;16.90;99.90
23435;DHT22;11890;45.380;11.028;2022-11-04T04:10:10;16.90;99.90
23435;DHT22;11890;45.380;11.028;2022-11-04T04:13:01;16.90;99.90
23435;DHT22;11890;45.380;11.028;2022-11-04T04:15:42;17.00;99.90
23435;DHT22;11890;45.380;11.028;2022-11-04T04:18:14;17.00;99.90
23435;DHT22;11890;45.380;11.028;2022-11-04T04:20:43;17.00;99.90
23435;DHT22;11890;45.380;11.028;2022-11-04T04:23:17;17.00;99.90
23435;DHT22;11890;45.380;11.028;2022-11-04T04:26:06;17.00;99.90
23435;DHT22;11890;45.380;11.028;2022-11-04T04:28:54;17.00;99.90
23435;DHT22;11890;45.380;11.028;2022-11-04T04:31:23;17.00;99.90
23435;DHT22;11890;45.380;11.028;2022-11-04T04:34:10;17.00;99.90
23435;DHT22;11890;45.380;11.028;2022-11-04T04:36:45;17.00;99.90
23435;DHT22;11890;45.380;11.028;2022-11-04T04:39:17;17.00;99.90
23435;DHT22;11890;45.380;11.028;2022-11-04T04:42:06;17.00;99.90
23435;DHT22;11890;45.380;11.028;2022-11-04T04:44:52;17.00;99.90
23435;DHT22;11890;45.380;11.028;2022-11-04T04:47:26;17.00;99.90
23435;DHT22;11890;45.380;11.028;2022-11-04T04:49:57;17.00;99.90
23435;DHT22;11890;45.380;11.028;2022-11-04T04:52:29;17.00;99.90
23435;DHT22;11890;45.380;11.028;2022-11-04T04:54:57;17.00;99.90
23435;DHT22;11890;45.380;11.028;2022-11-04T04:57:24;17.00;99.90
23435;DHT22;11890;45.380;11.028;2022-11-04T04:59:52;17.10;99.90
23435;DHT22;11890;45.380;11.028;2022-11-04T05:02:19;17.00;99.90
23435;DHT22;11890;45.380;11.028;2022-11-04T05:04:47;17.10;99.90
23435;DHT22;11890;45.380;11.028;2022-11-04T05:07:14;17.10;99.90
23435;DHT22;11890;45.380;11.028;2022-11-04T05:09:41;17.10;99.90
23435;DHT22;11890;45.380;11.028;2022-11-04T05:12:09;17.10;99.90
23435;DHT22;11890;45.380;11.028;2022-11-04T05:14:36;17.00;99.90
23435;DHT22;11890;45.380;11.028;2022-11-04T05:17:04;17.10;99.90
23435;DHT22;11890;45.380;11.028;2022-11-04T05:19:31;17.00;99.90
23435;DHT22;11890;45.380;11.028;2022-11-04T05:21:58;17.10;99.90
23435;DHT22;11890;45.380;11.028;2022-11-04T05:24:26;17.10;99.90
23435;DHT22;11890;45.380;11.028;2022-11-04T05:26:53;17.10;99.90
23435;DHT22;11890;45.380;11.028;2022-11-04T05:29:21;17.10;99.90
23435;DHT22;11890;45.380;11.028;2022-11-04T05:31:48;17.10;99.90
23435;DHT22;11890;45.380;11.028;2022-11-04T05:34:16;17.10;99.90
23435;DHT22;11890;45.380;11.028;2022-11-04T05:36:43;17.10;99.90
23435;DHT22;11890;45.380;11.028;2022-11-04T05:39:12;17.00;99.90
23435;DHT22;11890;45.380;11.028;2022-11-04T05:41:40;17.10;99.90
23435;DHT22;11890;45.380;11.028;2022-11-04T05:44:08;17.10;99.90
23435;DHT22;11890;45.380;11.028;2022-11-04T05:46:36;17.10;99.90
23435;DHT22;11890;45.380;11.028;2022-11-04T05:49:04;17.10;99.90
23435;DHT22;11890;45.380;11.028;2022-11-04T05:51:31;17.10;99.90
23435;DHT22;11890;45.380;11.028;2022-11-04T05:53:59;17.10;99.90
23435;DHT22;11890;45.380;11.028;2022-11-04T05:56:27;17.00;99.90
23435;DHT22;11890;45.380;11.028;2022-11-04T05:58:55;17.00;99.90
23435;DHT22;11890;45.380;11.028;2022-11-04T06:01:34;17.00;99.90
23435;DHT22;11890;45.380;11.028;2022-11-04T06:04:04;17.00;99.90
23435;DHT22;11890;45.380;11.028;2022-11-04T06:06:33;17.00;99.90
23435;DHT22;11890;45.380;11.028;2022-11-04T06:09:02;17.10;99.90
23435;DHT22;11890;45.380;11.028;2022-11-04T06:11:29;17.00;99.90
23435;DHT22;11890;45.380;11.028;2022-11-04T06:13:57;17.00;99.90
23435;DHT22;11890;45.380;11.028;2022-11-04T06:16:25;17.00;99.90
23435;DHT22;11890;45.380;11.028;2022-11-04T06:18:52;17.00;99.90
23435;DHT22;11890;45.380;11.028;2022-11-04T06:23:48;16.90;99.90
23435;DHT22;11890;45.380;11.028;2022-11-04T06:26:15;16.90;99.90
23435;DHT22;11890;45.380;11.028;2022-11-04T06:28:44;16.90;99.90
23435;DHT22;11890;45.380;11.028;2022-11-04T06:31:13;16.90;99.90
23435;DHT22;11890;45.380;11.028;2022-11-04T06:33:41;16.80;99.90
23435;DHT22;11890;45.380;11.028;2022-11-04T06:36:11;16.80;99.90
23435;DHT22;11890;45.380;11.028;2022-11-04T06:38:39;16.80;99.90
23435;DHT22;11890;45.380;11.028;2022-11-04T06:41:10;16.70;99.90
23435;DHT22;11890;45.380;11.028;2022-11-04T06:43:38;16.70;99.90
23435;DHT22;11890;45.380;11.028;2022-11-04T06:46:13;16.70;99.90
23435;DHT22;11890;45.380;11.028;2022-11-04T06:48:49;16.60;99.90
23435;DHT22;11890;45.380;11.028;2022-11-04T06:51:16;16.60;99.90
23435;DHT22;11890;45.380;11.028;2022-11-04T06:53:44;16.50;99.90
23435;DHT22;11890;45.380;11.028;2022-11-04T06:56:11;16.40;99.90
23435;DHT22;11890;45.380;11.028;2022-11-04T06:58:39;16.30;99.90
23435;DHT22;11890;45.380;11.028;2022-11-04T07:01:06;16.30;99.90
23435;DHT22;11890;45.380;11.028;2022-11-04T07:03:48;16.20;99.90
23435;DHT22;11890;45.380;11.028;2022-11-04T07:06:16;16.10;99.90
23435;DHT22;11890;45.380;11.028;2022-11-04T07:08:45;16.00;99.90
23435;DHT22;11890;45.380;11.028;2022-11-04T07:11:13;15.90;99.90
23435;DHT22;11890;45.380;11.028;2022-11-04T07:13:40;15.60;99.90
23435;DHT22;11890;45.380;11.028;2022-11-04T07:16:08;15.40;99.90
23435;DHT22;11890;45.380;11.028;2022-11-04T07:18:36;15.30;99.90
23435;DHT22;11890;45.380;11.028;2022-11-04T07:21:04;15.20;99.90
23435;DHT22;11890;45.380;11.028;2022-11-04T07:23:36;15.10;99.90
23435;DHT22;11890;45.380;11.028;2022-11-04T07:26:06;15.00;99.90
23435;DHT22;11890;45.380;11.028;2022-11-04T07:28:34;15.00;99.90
23435;DHT22;11890;45.380;11.028;2022-11-04T07:31:03;15.00;99.90
23435;DHT22;11890;45.380;11.028;2022-11-04T07:33:31;14.90;99.90
23435;DHT22;11890;45.380;11.028;2022-11-04T07:36:04;14.90;99.90
23435;DHT22;11890;45.380;11.028;2022-11-04T07:38:32;15.00;99.90
23435;DHT22;11890;45.380;11.028;2022-11-04T07:40:59;14.90;99.90
23435;DHT22;11890;45.380;11.028;2022-11-04T07:43:29;14.90;99.90
23435;DHT22;11890;45.380;11.028;2022-11-04T07:46:09;14.90;99.90
23435;DHT22;11890;45.380;11.028;2022-11-04T07:48:37;15.00;99.90
23435;DHT22;11890;45.380;11.028;2022-11-04T07:51:07;15.10;99.90
23435;DHT22;11890;45.380;11.028;2022-11-04T07:53:35;15.20;99.90
23435;DHT22;11890;45.380;11.028;2022-11-04T07:56:07;15.30;99.90
23435;DHT22;11890;45.380;11.028;2022-11-04T07:58:37;15.30;99.90
23435;DHT22;11890;45.380;11.028;2022-11-04T08:01:08;15.40;99.90
23435;DHT22;11890;45.380;11.028;2022-11-04T08:03:36;15.40;99.90
23435;DHT22;11890;45.380;11.028;2022-11-04T08:06:05;15.50;99.90
23435;DHT22;11890;45.380;11.028;2022-11-04T08:08:34;15.60;99.90
23435;DHT22;11890;45.380;11.028;2022-11-04T08:11:07;15.60;99.90
23435;DHT22;11890;45.380;11.028;2022-11-04T08:13:42;15.70;99.90
23435;DHT22;11890;45.380;11.028;2022-11-04T08:16:15;15.80;99.90
23435;DHT22;11890;45.380;11.028;2022-11-04T08:18:44;15.80;99.90
23435;DHT22;11890;45.380;11.028;2022-11-04T08:21:12;15.80;99.90
23435;DHT22;11890;45.380;11.028;2022-11-04T08:23:39;15.90;99.90
23435;DHT22;11890;45.380;11.028;2022-11-04T08:26:08;16.00;99.90
23435;DHT22;11890;45.380;11.028;2022-11-04T08:28:36;16.10;99.90
23435;DHT22;11890;45.380;11.028;2022-11-04T08:31:10;16.20;99.90
23435;DHT22;11890;45.380;11.028;2022-11-04T08:33:38;16.50;99.90
23435;DHT22;11890;45.380;11.028;2022-11-04T08:36:26;16.80;99.90
23435;DHT22;11890;45.380;11.028;2022-11-04T08:38:54;17.10;99.90
23435;DHT22;11890;45.380;11.028;2022-11-04T08:41:26;17.20;99.90
23435;DHT22;11890;45.380;11.028;2022-11-04T08:43:57;17.30;99.90
23435;DHT22;11890;45.380;11.028;2022-11-04T08:46:28;17.20;99.90
23435;DHT22;11890;45.380;11.028;2022-11-04T08:48:57;17.30;99.90
23435;DHT22;11890;45.380;11.028;2022-11-04T08:51:26;17.20;99.90
23435;DHT22;11890;45.380;11.028;2022-11-04T08:53:54;17.20;99.90
23435;DHT22;11890;45.380;11.028;2022-11-04T08:56:22;17.10;99.90
23435;DHT22;11890;45.380;11.028;2022-11-04T08:58:51;17.00;99.90
23435;DHT22;11890;45.380;11.028;2022-11-04T09:01:19;16.70;99.90
23435;DHT22;11890;45.380;11.028;2022-11-04T09:03:47;16.60;99.90
23435;DHT22;11890;45.380;11.028;2022-11-04T09:06:22;16.50;99.90
23435;DHT22;11890;45.380;11.028;2022-11-04T09:08:50;16.50;99.90
23435;DHT22;11890;45.380;11.028;2022-11-04T09:11:18;16.50;99.90
23435;DHT22;11890;45.380;11.028;2022-11-04T09:13:45;16.40;99.90
23435;DHT22;11890;45.380;11.028;2022-11-04T09:16:14;16.30;99.90
23435;DHT22;11890;45.380;11.028;2022-11-04T09:18:41;16.30;99.90
23435;DHT22;11890;45.380;11.028;2022-11-04T09:21:09;16.40;99.90
23435;DHT22;11890;45.380;11.028;2022-11-04T09:23:37;16.50;99.90
23435;DHT22;11890;45.380;11.028;2022-11-04T09:26:11;16.50;99.90
23435;DHT22;11890;45.380;11.028;2022-11-04T09:28:39;16.60;99.90
23435;DHT22;11890;45.380;11.028;2022-11-04T09:31:17;16.70;99.90
23435;DHT22;11890;45.380;11.028;2022-11-04T09:33:45;16.90;99.90
23435;DHT22;11890;45.380;11.028;2022-11-04T09:36:12;17.20;99.90
23435;DHT22;11890;45.380;11.028;2022-11-04T09:38:41;17.60;99.90
23435;DHT22;11890;45.380;11.028;2022-11-04T09:41:26;18.20;99.90
23435;DHT22;11890;45.380;11.028;2022-11-04T09:46:52;20.80;99.90
23435;DHT22;11890;45.380;11.028;2022-11-04T09:49:21;21.80;99.90
23435;DHT22;11890;45.380;11.028;2022-11-04T09:51:50;23.30;99.90
23435;DHT22;11890;45.380;11.028;2022-11-04T09:54:24;24.50;99.90
23435;DHT22;11890;45.380;11.028;2022-11-04T09:56:54;24.50;97.70
23435;DHT22;11890;45.380;11.028;2022-11-04T09:59:26;24.90;96.40
23435;DHT22;11890;45.380;11.028;2022-11-04T10:04:44;25.90;93.80
23435;DHT22;11890;45.380;11.028;2022-11-04T10:10:15;26.90;92.00
23435;DHT22;11890;45.380;11.028;2022-11-04T10:12:55;27.00;90.10
23435;DHT22;11890;45.380;11.028;2022-11-04T10:15:43;26.00;90.90
23435;DHT22;11890;45.380;11.028;2022-11-04T10:23:41;21.90;95.40
23435;DHT22;11890;45.380;11.028;2022-11-04T10:26:56;20.70;98.40
23435;DHT22;11890;45.380;11.028;2022-11-04T10:29:05;19.90;99.90
23435;DHT22;11890;45.380;11.028;2022-11-04T10:31:36;19.20;99.90
23435;DHT22;11890;45.380;11.028;2022-11-04T10:34:18;18.60;99.90
23435;DHT22;11890;45.380;11.028;2022-11-04T10:36:48;18.30;99.90
23435;DHT22;11890;45.380;11.028;2022-11-04T10:39:25;18.00;99.90
23435;DHT22;11890;45.380;11.028;2022-11-04T10:41:54;17.80;99.90
23435;DHT22;11890;45.380;11.028;2022-11-04T10:50:00;17.40;99.90
23435;DHT22;11890;45.380;11.028;2022-11-04T10:52:49;17.40;99.90
23435;DHT22;11890;45.380;11.028;2022-11-04T10:58:31;17.50;99.90
23435;DHT22;11890;45.380;11.028;2022-11-04T11:00:59;17.50;99.90
23435;DHT22;11890;45.380;11.028;2022-11-04T11:03:46;17.60;99.90
23435;DHT22;11890;45.380;11.028;2022-11-04T11:06:24;17.60;99.90
23435;DHT22;11890;45.380;11.028;2022-11-04T11:12:24;17.80;99.90
23435;DHT22;11890;45.380;11.028;2022-11-04T11:15:26;19.00;99.90
23435;DHT22;11890;45.380;11.028;2022-11-04T11:24:31;28.70;92.70
23435;DHT22;11890;45.380;11.028;2022-11-04T11:27:09;31.00;88.00
23435;DHT22;11890;45.380;11.028;2022-11-04T11:30:11;31.80;78.60
23435;DHT22;11890;45.380;11.028;2022-11-04T11:35:56;34.00;65.30
23435;DHT22;11890;45.380;11.028;2022-11-04T11:38:26;35.00;62.60
23435;DHT22;11890;45.380;11.028;2022-11-04T11:44:34;36.50;55.00
23435;DHT22;11890;45.380;11.028;2022-11-04T11:47:08;37.00;52.70
23435;DHT22;11890;45.380;11.028;2022-11-04T11:56:34;37.60;50.30
23435;DHT22;11890;45.380;11.028;2022-11-04T11:59:49;37.20;50.00
23435;DHT22;11890;45.380;11.028;2022-11-04T12:03:00;37.70;51.20
23435;DHT22;11890;45.380;11.028;2022-11-04T12:05:45;38.30;48.00
23435;DHT22;11890;45.380;11.028;2022-11-04T12:12:04;37.30;47.50
23435;DHT22;11890;45.380;11.028;2022-11-04T12:14:55;36.30;47.60
23435;DHT22;11890;45.380;11.028;2022-11-04T12:27:07;37.80;47.40
23435;DHT22;11890;45.380;11.028;2022-11-04T12:30:10;37.50;45.50
23435;DHT22;11890;45.380;11.028;2022-11-04T12:32:51;37.30;45.40
23435;DHT22;11890;45.380;11.028;2022-11-04T12:38:39;37.40;45.60
23435;DHT22;11890;45.380;11.028;2022-11-04T12:44:32;37.70;43.80
23435;DHT22;11890;45.380;11.028;2022-11-04T12:58:34;37.00;43.60
23435;DHT22;11890;45.380;11.028;2022-11-04T13:01:10;36.40;43.30
23435;DHT22;11890;45.380;11.028;2022-11-04T13:03:53;36.20;43.70
23435;DHT22;11890;45.380;11.028;2022-11-04T13:06:32;36.20;45.50
23435;DHT22;11890;45.380;11.028;2022-11-04T13:11:54;35.20;44.80
23435;DHT22;11890;45.380;11.028;2022-11-04T13:14:27;33.70;47.30
23435;DHT22;11890;45.380;11.028;2022-11-04T13:16:59;31.90;49.70
23435;DHT22;11890;45.380;11.028;2022-11-04T13:19:33;30.00;51.40
23435;DHT22;11890;45.380;11.028;2022-11-04T13:22:06;28.30;54.90
23435;DHT22;11890;45.380;11.028;2022-11-04T13:24:37;26.90;56.90
23435;DHT22;11890;45.380;11.028;2022-11-04T13:27:17;25.80;58.00
23435;DHT22;11890;45.380;11.028;2022-11-04T13:29:46;24.80;60.90
23435;DHT22;11890;45.380;11.028;2022-11-04T13:32:25;23.80;62.90
23435;DHT22;11890;45.380;11.028;2022-11-04T13:35:17;23.20;66.30
23435;DHT22;11890;45.380;11.028;2022-11-04T13:40:30;22.70;69.30
23435;DHT22;11890;45.380;11.028;2022-11-04T13:43:19;22.50;69.40
23435;DHT22;11890;45.380;11.028;2022-11-04T13:48:36;22.20;67.60
23435;DHT22;11890;45.380;11.028;2022-11-04T13:51:07;22.00;67.10
23435;DHT22;11890;45.380;11.028;2022-11-04T13:53:52;21.90;69.50
23435;DHT22;11890;45.380;11.028;2022-11-04T13:56:41;21.80;69.70
23435;DHT22;11890;45.380;11.028;2022-11-04T13:59:18;21.70;70.30
23435;DHT22;11890;45.380;11.028;2022-11-04T14:01:46;21.50;70.20
23435;DHT22;11890;45.380;11.028;2022-11-04T14:04:29;21.50;70.30
23435;DHT22;11890;45.380;11.028;2022-11-04T14:06:59;21.50;71.00
23435;DHT22;11890;45.380;11.028;2022-11-04T14:20:22;21.30;72.90
23435;DHT22;11890;45.380;11.028;2022-11-04T14:22:52;21.20;72.30
23435;DHT22;11890;45.380;11.028;2022-11-04T14:28:15;21.00;73.30
23435;DHT22;11890;45.380;11.028;2022-11-04T14:30:49;21.00;75.50
23435;DHT22;11890;45.380;11.028;2022-11-04T14:36:39;20.90;74.90
23435;DHT22;11890;45.380;11.028;2022-11-04T14:44:14;20.60;76.70
23435;DHT22;11890;45.380;11.028;2022-11-04T14:46:46;20.30;75.60
23435;DHT22;11890;45.380;11.028;2022-11-04T14:54:48;19.90;77.80
23435;DHT22;11890;45.380;11.028;2022-11-04T14:57:22;19.80;78.00
23435;DHT22;11890;45.380;11.028;2022-11-04T14:59:50;19.80;80.10
23435;DHT22;11890;45.380;11.028;2022-11-04T15:02:22;19.80;78.40
23435;DHT22;11890;45.380;11.028;2022-11-04T15:05:00;19.70;79.40
23435;DHT22;11890;45.380;11.028;2022-11-04T15:07:41;19.70;80.20
23435;DHT22;11890;45.380;11.028;2022-11-04T15:10:26;19.70;81.00
23435;DHT22;11890;45.380;11.028;2022-11-04T15:13:00;19.70;81.10
23435;DHT22;11890;45.380;11.028;2022-11-04T15:15:36;19.60;79.10
23435;DHT22;11890;45.380;11.028;2022-11-04T15:18:11;19.50;79.40
23435;DHT22;11890;45.380;11.028;2022-11-04T15:20:50;19.40;78.10
23435;DHT22;11890;45.380;11.028;2022-11-04T15:23:32;19.30;74.90
23435;DHT22;11890;45.380;11.028;2022-11-04T15:26:01;19.10;76.50
23435;DHT22;11890;45.380;11.028;2022-11-04T15:28:33;19.10;79.20
23435;DHT22;11890;45.380;11.028;2022-11-04T15:31:16;19.10;80.20
23435;DHT22;11890;45.380;11.028;2022-11-04T15:33:46;19.10;78.90
23435;DHT22;11890;45.380;11.028;2022-11-04T15:36:18;19.10;80.20
23435;DHT22;11890;45.380;11.028;2022-11-04T15:38:50;19.10;80.10
23435;DHT22;11890;45.380;11.028;2022-11-04T15:41:20;19.00;81.50
23435;DHT22;11890;45.380;11.028;2022-11-04T15:44:27;19.00;80.60
23435;DHT22;11890;45.380;11.028;2022-11-04T15:46:57;18.90;79.90
23435;DHT22;11890;45.380;11.028;2022-11-04T15:49:29;18.70;81.10
23435;DHT22;11890;45.380;11.028;2022-11-04T15:52:05;18.60;81.50
23435;DHT22;11890;45.380;11.028;2022-11-04T15:54:37;18.50;80.20
23435;DHT22;11890;45.380;11.028;2022-11-04T15:57:13;18.50;82.70
23435;DHT22;11890;45.380;11.028;2022-11-04T15:59:45;18.50;81.30
23435;DHT22;11890;45.380;11.028;2022-11-04T16:02:25;18.50;81.40
23435;DHT22;11890;45.380;11.028;2022-11-04T16:07:46;18.50;83.40
23435;DHT22;11890;45.380;11.028;2022-11-04T16:13:23;18.50;82.40
23435;DHT22;11890;45.380;11.028;2022-11-04T16:23:50;18.20;82.80
23435;DHT22;11890;45.380;11.028;2022-11-04T16:26:24;18.10;82.50
23435;DHT22;11890;45.380;11.028;2022-11-04T16:28:54;18.10;81.90
23435;DHT22;11890;45.380;11.028;2022-11-04T16:33:52;18.00;82.90
23435;DHT22;11890;45.380;11.028;2022-11-04T16:36:19;17.90;82.80
23435;DHT22;11890;45.380;11.028;2022-11-04T16:41:23;17.80;84.60
23435;DHT22;11890;45.380;11.028;2022-11-04T16:43:51;17.70;85.10
23435;DHT22;11890;45.380;11.028;2022-11-04T16:46:20;17.70;85.60
23435;DHT22;11890;45.380;11.028;2022-11-04T16:48:48;17.60;85.40
23435;DHT22;11890;45.380;11.028;2022-11-04T16:51:21;17.50;85.50
23435;DHT22;11890;45.380;11.028;2022-11-04T16:53:49;17.50;86.60
23435;DHT22;11890;45.380;11.028;2022-11-04T16:56:21;17.50;87.80
23435;DHT22;11890;45.380;11.028;2022-11-04T16:58:50;17.40;90.10
23435;DHT22;11890;45.380;11.028;2022-11-04T17:01:17;17.30;90.50
23435;DHT22;11890;45.380;11.028;2022-11-04T17:03:45;17.30;90.70
23435;DHT22;11890;45.380;11.028;2022-11-04T17:06:14;17.20;91.70
23435;DHT22;11890;45.380;11.028;2022-11-04T17:08:42;17.20;91.50
23435;DHT22;11890;45.380;11.028;2022-11-04T17:11:11;17.10;91.50
23435;DHT22;11890;45.380;11.028;2022-11-04T17:13:38;17.10;92.30
23435;DHT22;11890;45.380;11.028;2022-11-04T17:16:06;17.10;93.20
23435;DHT22;11890;45.380;11.028;2022-11-04T17:18:36;17.00;93.20
23435;DHT22;11890;45.380;11.028;2022-11-04T17:21:09;17.00;93.90
23435;DHT22;11890;45.380;11.028;2022-11-04T17:23:38;17.00;93.90
23435;DHT22;11890;45.380;11.028;2022-11-04T17:26:05;17.00;94.00
23435;DHT22;11890;45.380;11.028;2022-11-04T17:28:32;17.10;94.30
23435;DHT22;11890;45.380;11.028;2022-11-04T17:31:01;17.10;94.70
23435;DHT22;11890;45.380;11.028;2022-11-04T17:33:28;17.10;95.10
23435;DHT22;11890;45.380;11.028;2022-11-04T17:35:56;17.10;95.20
23435;DHT22;11890;45.380;11.028;2022-11-04T17:38:23;17.10;95.40
23435;DHT22;11890;45.380;11.028;2022-11-04T17:40:50;17.10;95.90
23435;DHT22;11890;45.380;11.028;2022-11-04T17:43:37;17.00;96.30
23435;DHT22;11890;45.380;11.028;2022-11-04T17:46:23;17.00;96.50
23435;DHT22;11890;45.380;11.028;2022-11-04T17:49:11;16.90;96.70
23435;DHT22;11890;45.380;11.028;2022-11-04T17:51:41;16.90;96.50
23435;DHT22;11890;45.380;11.028;2022-11-04T17:54:09;16.90;97.00
23435;DHT22;11890;45.380;11.028;2022-11-04T17:56:37;16.90;96.30
23435;DHT22;11890;45.380;11.028;2022-11-04T17:59:07;16.90;96.00
23435;DHT22;11890;45.380;11.028;2022-11-04T18:01:35;16.90;96.00
23435;DHT22;11890;45.380;11.028;2022-11-04T18:04:03;16.80;96.20
23435;DHT22;11890;45.380;11.028;2022-11-04T18:06:32;16.80;96.60
23435;DHT22;11890;45.380;11.028;2022-11-04T18:09:01;16.70;96.70
23435;DHT22;11890;45.380;11.028;2022-11-04T18:11:29;16.70;96.70
23435;DHT22;11890;45.380;11.028;2022-11-04T18:14:16;16.60;97.10
23435;DHT22;11890;45.380;11.028;2022-11-04T18:16:45;16.60;97.40
23435;DHT22;11890;45.380;11.028;2022-11-04T18:19:15;16.50;97.60
23435;DHT22;11890;45.380;11.028;2022-11-04T18:21:43;16.50;97.80
23435;DHT22;11890;45.380;11.028;2022-11-04T18:24:10;16.40;98.10
23435;DHT22;11890;45.380;11.028;2022-11-04T18:26:39;16.40;98.30
23435;DHT22;11890;45.380;11.028;2022-11-04T18:29:06;16.30;98.70
23435;DHT22;11890;45.380;11.028;2022-11-04T18:31:36;16.20;99.10
23435;DHT22;11890;45.380;11.028;2022-11-04T18:34:06;16.10;99.20
23435;DHT22;11890;45.380;11.028;2022-11-04T18:36:36;16.00;99.70
23435;DHT22;11890;45.380;11.028;2022-11-04T18:39:06;15.90;99.90
23435;DHT22;11890;45.380;11.028;2022-11-04T18:41:35;15.90;99.90
23435;DHT22;11890;45.380;11.028;2022-11-04T18:44:02;15.80;99.90